Time,TemperatureF,DewpointF,PressureIn,WindDirection,WindDirectionDegrees,WindSpeedMPH,WindSpeedGustMPH,Humidity,HourlyPrecipIn,Conditions,Clouds,dailyrainin,SoftwareType,DateUTC
2013-05-06 00:10:00,52.1,48.0,30.13,NNW,343,3.0,-999.0,87,-99.99,,,0.00,weatherlink.com 1.10,2013-05-06 05:10:00,
2013-05-06 00:25:00,51.9,48.0,30.13,NNW,346,0.0,-999.0,87,-99.99,,,0.00,weatherlink.com 1.10,2013-05-06 05:25:00,
2013-05-06 00:40:00,51.8,48.0,30.13,NW,320,0.0,-999.0,87,-99.99,,,0.00,weatherlink.com 1.10,2013-05-06 05:40:00,
2013-05-06 00:55:00,51.5,48.0,30.13,NW,304,1.0,-999.0,88,-99.99,,,0.00,weatherlink.com 1.10,2013-05-06 05:55:00,
2013-05-06 01:10:00,51.4,48.0,30.12,NW,304,0.0,-999.0,88,-99.99,,,0.00,weatherlink.com 1.10,2013-05-06 06:10:00,
2013-05-06 01:25:00,51.3,48.0,30.12,NW,306,1.0,-999.0,88,-99.99,,,0.00,weatherlink.com 1.10,2013-05-06 06:25:00,
2013-05-06 01:40:00,51.2,48.0,30.12,NNW,331,5.0,-999.0,89,-99.99,,,0.00,weatherlink.com 1.10,2013-05-06 06:40:00,
2013-05-06 01:55:00,51.0,48.0,30.12,NNW,340,1.0,-999.0,89,-99.99,,,0.00,weatherlink.com 1.10,2013-05-06 06:55:00,
2013-05-06 02:10:00,50.7,48.0,30.11,North,360,5.0,-999.0,90,-99.99,,,0.00,weatherlink.com 1.10,2013-05-06 07:10:00,
2013-05-06 02:25:00,50.5,48.0,30.11,North,360,3.0,-999.0,90,-99.99,,,0.00,weatherlink.com 1.10,2013-05-06 07:25:00,
2013-05-06 02:40:00,50.4,48.0,30.11,NNW,346,3.0,-999.0,91,-99.99,,,0.00,weatherlink.com 1.10,2013-05-06 07:40:00,
2013-05-06 02:55:00,50.1,48.0,30.11,NNW,336,3.0,-999.0,91,-99.99,,,0.00,weatherlink.com 1.10,2013-05-06 07:55:00,
2013-05-06 03:10:00,49.9,47.0,30.10,NNW,340,6.0,-999.0,91,-99.99,,,0.00,weatherlink.com 1.10,2013-05-06 08:10:00,
2013-05-06 03:26:00,49.8,48.0,30.10,North,355,4.0,-999.0,92,-99.99,,,0.00,weatherlink.com 1.10,2013-05-06 08:26:00,
2013-05-06 03:41:00,49.6,47.0,30.11,NNW,339,4.0,-999.0,92,-99.99,,,0.00,weatherlink.com 1.10,2013-05-06 08:41:00,
2013-05-06 03:56:00,49.6,47.0,30.11,NNW,340,4.0,-999.0,92,-99.99,,,0.00,weatherlink.com 1.10,2013-05-06 08:56:00,
2013-05-06 04:11:00,49.5,47.0,30.11,NW,324,3.0,-999.0,92,-99.99,,,0.00,weatherlink.com 1.10,2013-05-06 09:11:00,
2013-05-06 04:26:00,49.5,47.0,30.11,NNW,334,3.0,-999.0,92,-99.99,,,0.00,weatherlink.com 1.10,2013-05-06 09:26:00,
2013-05-06 04:41:00,49.4,48.0,30.12,NNW,329,0.0,-999.0,93,-99.99,,,0.00,weatherlink.com 1.10,2013-05-06 09:41:00,
2013-05-06 04:56:00,49.4,48.0,30.12,NNW,329,2.0,-999.0,93,-99.99,,,0.00,weatherlink.com 1.10,2013-05-06 09:56:00,
2013-05-06 05:11:00,49.3,47.0,30.12,NNW,333,2.0,-999.0,93,-99.99,,,0.00,weatherlink.com 1.10,2013-05-06 10:11:00,
2013-05-06 05:26:00,49.1,47.0,30.12,NW,325,0.0,-999.0,93,-99.99,,,0.00,weatherlink.com 1.10,2013-05-06 10:26:00,
2013-05-06 05:41:00,48.9,47.0,30.12,NNW,327,0.0,-999.0,93,-99.99,,,0.00,weatherlink.com 1.10,2013-05-06 10:41:00,
2013-05-06 05:56:00,48.8,47.0,30.12,NNW,327,1.0,-999.0,93,-99.99,,,0.00,weatherlink.com 1.10,2013-05-06 10:56:00,
2013-05-06 06:11:00,48.8,47.0,30.12,NNW,327,0.0,-999.0,93,-99.99,,,0.00,weatherlink.com 1.10,2013-05-06 11:11:00,
2013-05-06 06:26:00,48.7,47.0,30.12,South,182,0.0,-999.0,93,-99.99,,,0.00,weatherlink.com 1.10,2013-05-06 11:26:00,
2013-05-06 06:41:00,48.7,47.0,30.13,NW,315,2.0,-999.0,93,-99.99,,,0.00,weatherlink.com 1.10,2013-05-06 11:41:00,
2013-05-06 06:56:00,48.8,47.0,30.13,NW,318,2.0,-999.0,93,-99.99,,,0.00,weatherlink.com 1.10,2013-05-06 11:56:00,
2013-05-06 07:11:00,48.9,47.0,30.14,NNW,346,4.0,-999.0,93,-99.99,,,0.00,weatherlink.com 1.10,2013-05-06 12:11:00,
2013-05-06 07:26:00,49.0,47.0,30.14,North,351,2.0,-999.0,93,-99.99,,,0.00,weatherlink.com 1.10,2013-05-06 12:26:00,
2013-05-06 07:41:00,49.2,47.0,30.14,NNW,347,1.0,-999.0,93,-99.99,,,0.00,weatherlink.com 1.10,2013-05-06 12:41:00,
2013-05-06 07:56:00,49.4,48.0,30.14,NNW,343,2.0,-999.0,93,-99.99,,,0.00,weatherlink.com 1.10,2013-05-06 12:56:00,
2013-05-06 08:11:00,49.7,48.0,30.14,NNW,344,0.0,-999.0,92,-99.99,,,0.00,weatherlink.com 1.10,2013-05-06 13:11:00,
2013-05-06 08:26:00,49.7,48.0,30.14,North,355,4.0,-999.0,92,-99.99,,,0.00,weatherlink.com 1.10,2013-05-06 13:26:00,
2013-05-06 08:41:00,49.8,48.0,30.15,North,350,1.0,-999.0,92,-99.99,,,0.00,weatherlink.com 1.10,2013-05-06 13:41:00,
2013-05-06 08:56:00,50.0,49.0,30.15,NNW,332,3.0,-999.0,95,-99.99,,,0.00,weatherlink.com 1.10,2013-05-06 13:56:00,
2013-05-06 09:11:00,50.3,48.0,30.15,NNE,22,4.0,-999.0,91,-99.99,,,0.00,weatherlink.com 1.10,2013-05-06 14:11:00,
2013-05-06 09:26:00,50.6,48.0,30.15,NNE,19,4.0,-999.0,91,-99.99,,,0.00,weatherlink.com 1.10,2013-05-06 14:26:00,
2013-05-06 09:41:00,51.0,49.0,30.15,North,11,3.0,-999.0,91,-99.99,,,0.00,weatherlink.com 1.10,2013-05-06 14:41:00,
2013-05-06 09:56:00,51.5,49.0,30.15,North,355,3.0,-999.0,90,-99.99,,,0.00,weatherlink.com 1.10,2013-05-06 14:56:00,
2013-05-06 10:11:00,51.5,48.0,30.15,North,355,2.0,-999.0,88,-99.99,,,0.00,weatherlink.com 1.10,2013-05-06 15:11:00,
2013-05-06 10:26:00,52.0,49.0,30.15,NNW,333,3.0,-999.0,88,-99.99,,,0.00,weatherlink.com 1.10,2013-05-06 15:26:00,
2013-05-06 10:41:00,52.2,49.0,30.15,NW,318,3.0,-999.0,88,-99.99,,,0.00,weatherlink.com 1.10,2013-05-06 15:41:00,
2013-05-06 10:56:00,52.6,49.0,30.15,NW,312,4.0,-999.0,87,-99.99,,,0.00,weatherlink.com 1.10,2013-05-06 15:56:00,
2013-05-06 11:11:00,52.5,48.0,30.15,WNW,303,1.0,-999.0,85,-99.99,,,0.00,weatherlink.com 1.10,2013-05-06 16:11:00,
2013-05-06 11:26:00,53.4,49.0,30.15,NNW,343,3.0,-999.0,86,-99.99,,,0.00,weatherlink.com 1.10,2013-05-06 16:26:00,
2013-05-06 11:41:00,53.8,49.0,30.15,North,360,0.0,-999.0,85,-99.99,,,0.00,weatherlink.com 1.10,2013-05-06 16:41:00,
2013-05-06 11:56:00,54.4,50.0,30.14,NNW,346,2.0,-999.0,85,-99.99,,,0.00,weatherlink.com 1.10,2013-05-06 16:56:00,
2013-05-06 12:11:00,54.9,51.0,30.14,NNW,346,5.0,-999.0,85,-99.99,,,0.00,weatherlink.com 1.10,2013-05-06 17:11:00,
2013-05-06 12:26:00,55.6,51.0,30.14,North,355,3.0,-999.0,84,-99.99,,,0.00,weatherlink.com 1.10,2013-05-06 17:26:00,
2013-05-06 12:41:00,56.7,52.0,30.14,North,350,4.0,-999.0,83,-99.99,,,0.00,weatherlink.com 1.10,2013-05-06 17:41:00,
2013-05-06 12:56:00,57.8,52.0,30.14,North,360,5.0,-999.0,80,-99.99,,,0.00,weatherlink.com 1.10,2013-05-06 17:56:00,
2013-05-06 13:11:00,58.5,52.0,30.13,NNW,341,5.0,-999.0,78,-99.99,,,0.00,weatherlink.com 1.10,2013-05-06 18:11:00,
2013-05-06 13:26:00,60.2,54.0,30.12,North,360,6.0,-999.0,79,-99.99,,,0.00,weatherlink.com 1.10,2013-05-06 18:26:00,
2013-05-06 13:41:00,60.5,54.0,30.12,North,360,6.0,-999.0,79,-99.99,,,0.00,weatherlink.com 1.10,2013-05-06 18:41:00,
2013-05-06 13:57:00,62.7,54.0,30.11,North,349,4.0,-999.0,74,-99.99,,,0.00,weatherlink.com 1.10,2013-05-06 18:57:00,
2013-05-06 14:12:00,63.4,54.0,30.11,NNE,28,1.0,-999.0,72,-99.99,,,0.00,weatherlink.com 1.10,2013-05-06 19:12:00,
2013-05-06 14:27:00,63.8,55.0,30.10,NNE,13,1.0,-999.0,73,-99.99,,,0.00,weatherlink.com 1.10,2013-05-06 19:27:00,
2013-05-06 14:42:00,64.7,55.0,30.10,NNE,13,5.0,-999.0,70,-99.99,,,0.00,weatherlink.com 1.10,2013-05-06 19:42:00,
2013-05-06 14:57:00,65.7,54.0,30.09,NE,34,2.0,-999.0,67,-99.99,,,0.00,weatherlink.com 1.10,2013-05-06 19:57:00,
2013-05-06 15:12:00,66.4,55.0,30.09,NE,46,3.0,-999.0,67,-99.99,,,0.00,weatherlink.com 1.10,2013-05-06 20:12:00,
2013-05-06 15:27:00,67.3,55.0,30.08,North,360,0.0,-999.0,65,-99.99,,,0.00,weatherlink.com 1.10,2013-05-06 20:27:00,
2013-05-06 15:42:00,67.8,56.0,30.07,NNE,28,3.0,-999.0,65,-99.99,,,0.00,weatherlink.com 1.10,2013-05-06 20:42:00,
2013-05-06 15:57:00,68.9,55.0,30.06,NE,34,2.0,-999.0,61,-99.99,,,0.00,weatherlink.com 1.10,2013-05-06 20:57:00,
2013-05-06 16:12:00,69.7,56.0,30.05,NNE,22,5.0,-999.0,61,-99.99,,,0.00,weatherlink.com 1.10,2013-05-06 21:12:00,
2013-05-06 16:27:00,70.3,56.0,30.04,NNE,29,4.0,-999.0,60,-99.99,,,0.00,weatherlink.com 1.10,2013-05-06 21:27:00,
2013-05-06 16:42:00,70.6,56.0,30.04,North,5,4.0,-999.0,61,-99.99,,,0.00,weatherlink.com 1.10,2013-05-06 21:42:00,
2013-05-06 16:57:00,71.3,55.0,30.03,ENE,69,4.0,-999.0,56,-99.99,,,0.00,weatherlink.com 1.10,2013-05-06 21:57:00,
2013-05-06 17:12:00,71.9,55.0,30.03,NE,44,0.0,-999.0,55,-99.99,,,0.00,weatherlink.com 1.10,2013-05-06 22:12:00,
2013-05-06 17:27:00,72.3,56.0,30.03,NNE,30,4.0,-999.0,56,-99.99,,,0.00,weatherlink.com 1.10,2013-05-06 22:27:00,
2013-05-06 17:42:00,72.6,55.0,30.02,NNE,14,3.0,-999.0,55,-99.99,,,0.00,weatherlink.com 1.10,2013-05-06 22:42:00,
2013-05-06 17:57:00,72.1,54.0,30.02,West,281,0.0,-999.0,54,-99.99,,,0.00,weatherlink.com 1.10,2013-05-06 22:57:00,
2013-05-06 18:12:00,71.8,54.0,30.02,West,281,0.0,-999.0,54,-99.99,,,0.00,weatherlink.com 1.10,2013-05-06 23:12:00,
2013-05-06 18:27:00,71.9,54.0,30.01,NW,311,0.0,-999.0,54,-99.99,,,0.00,weatherlink.com 1.10,2013-05-06 23:27:00,
2013-05-06 18:42:00,71.7,54.0,30.01,NW,309,0.0,-999.0,54,-99.99,,,0.00,weatherlink.com 1.10,2013-05-06 23:42:00,
2013-05-06 18:57:00,71.5,54.0,30.01,NW,310,0.0,-999.0,54,-99.99,,,0.00,weatherlink.com 1.10,2013-05-06 23:57:00,
2013-05-06 19:12:00,71.1,54.0,30.01,NW,310,0.0,-999.0,55,-99.99,,,0.00,weatherlink.com 1.10,2013-05-07 00:12:00,
2013-05-06 19:27:00,69.6,54.0,30.02,NW,311,0.0,-999.0,59,-99.99,,,0.00,weatherlink.com 1.10,2013-05-07 00:27:00,
2013-05-06 19:42:00,68.0,54.0,30.02,NW,311,0.0,-999.0,61,-99.99,,,0.00,weatherlink.com 1.10,2013-05-07 00:42:00,
2013-05-06 19:57:00,66.0,53.0,30.02,North,355,0.0,-999.0,64,-99.99,,,0.00,weatherlink.com 1.10,2013-05-07 00:57:00,
2013-05-06 20:13:00,64.3,53.0,30.02,North,355,0.0,-999.0,67,-99.99,,,0.00,weatherlink.com 1.10,2013-05-07 01:13:00,
2013-05-06 20:28:00,62.9,53.0,30.02,North,355,0.0,-999.0,69,-99.99,,,0.00,weatherlink.com 1.10,2013-05-07 01:28:00,
2013-05-06 20:43:00,62.4,52.0,30.03,North,355,0.0,-999.0,70,-99.99,,,0.00,weatherlink.com 1.10,2013-05-07 01:43:00,
2013-05-06 20:58:00,61.3,53.0,30.03,North,355,0.0,-999.0,73,-99.99,,,0.00,weatherlink.com 1.10,2013-05-07 01:58:00,
2013-05-06 21:13:00,60.1,52.0,30.04,North,355,0.0,-999.0,75,-99.99,,,0.00,weatherlink.com 1.10,2013-05-07 02:13:00,
2013-05-06 21:28:00,59.1,52.0,30.04,North,355,0.0,-999.0,76,-99.99,,,0.00,weatherlink.com 1.10,2013-05-07 02:28:00,
2013-05-06 21:43:00,57.7,51.0,30.05,North,355,0.0,-999.0,79,-99.99,,,0.00,weatherlink.com 1.10,2013-05-07 02:43:00,
2013-05-06 21:58:00,56.9,51.0,30.05,North,355,0.0,-999.0,81,-99.99,,,0.00,weatherlink.com 1.10,2013-05-07 02:58:00,
2013-05-06 22:13:00,56.5,51.0,30.05,North,355,0.0,-999.0,81,-99.99,,,0.00,weatherlink.com 1.10,2013-05-07 03:13:00,
2013-05-06 22:28:00,55.7,50.0,30.05,North,355,0.0,-999.0,81,-99.99,,,0.00,weatherlink.com 1.10,2013-05-07 03:28:00,
2013-05-06 22:43:00,54.0,48.0,30.06,North,355,0.0,-999.0,80,-99.99,,,0.00,weatherlink.com 1.10,2013-05-07 03:43:00,
2013-05-06 22:58:00,53.5,50.0,30.05,North,355,0.0,-999.0,88,-99.99,,,0.00,weatherlink.com 1.10,2013-05-07 03:58:00,
2013-05-06 23:13:00,53.0,50.0,30.05,North,355,0.0,-999.0,88,-99.99,,,0.00,weatherlink.com 1.10,2013-05-07 04:13:00,
2013-05-06 23:28:00,53.3,50.0,30.05,North,355,0.0,-999.0,89,-99.99,,,0.00,weatherlink.com 1.10,2013-05-07 04:28:00,
2013-05-06 23:43:00,52.1,49.0,30.05,North,355,0.0,-999.0,88,-99.99,,,0.00,weatherlink.com 1.10,2013-05-07 04:43:00,
2013-05-06 23:58:00,51.8,49.0,30.05,North,355,0.0,-999.0,89,-99.99,,,0.00,weatherlink.com 1.10,2013-05-07 04:58:00,